sensor_id;sensor_type;location;lat;lon;timestamp;temperature;humidity
20929;DHT22;21895;47.072;15.132;2022-12-10T00:01:39;4.80;99.90
20929;DHT22;21895;47.072;15.132;2022-12-10T00:04:07;4.80;99.90
20929;DHT22;21895;47.072;15.132;2022-12-10T00:06:35;4.70;99.90
20929;DHT22;21895;47.072;15.132;2022-12-10T00:09:04;4.70;99.90
20929;DHT22;21895;47.072;15.132;2022-12-10T00:11:32;4.80;99.90
20929;DHT22;21895;47.072;15.132;2022-12-10T00:13:59;4.80;99.90
20929;DHT22;21895;47.072;15.132;2022-12-10T00:16:27;4.80;99.90
20929;DHT22;21895;47.072;15.132;2022-12-10T00:18:54;4.80;99.90
20929;DHT22;21895;47.072;15.132;2022-12-10T00:21:23;4.80;99.90
20929;DHT22;21895;47.072;15.132;2022-12-10T00:23:52;4.80;99.90
20929;DHT22;21895;47.072;15.132;2022-12-10T00:26:24;4.80;99.90
20929;DHT22;21895;47.072;15.132;2022-12-10T00:28:53;4.80;99.90
20929;DHT22;21895;47.072;15.132;2022-12-10T00:31:29;4.70;99.90
20929;DHT22;21895;47.072;15.132;2022-12-10T00:34:01;4.70;99.90
20929;DHT22;21895;47.072;15.132;2022-12-10T00:36:38;4.70;99.90
20929;DHT22;21895;47.072;15.132;2022-12-10T00:39:14;4.60;99.90
20929;DHT22;21895;47.072;15.132;2022-12-10T00:41:42;4.60;99.90
20929;DHT22;21895;47.072;15.132;2022-12-10T00:44:09;4.60;99.90
20929;DHT22;21895;47.072;15.132;2022-12-10T00:46:36;4.50;99.90
20929;DHT22;21895;47.072;15.132;2022-12-10T00:49:03;4.60;99.90
20929;DHT22;21895;47.072;15.132;2022-12-10T00:51:31;4.60;99.90
20929;DHT22;21895;47.072;15.132;2022-12-10T00:54:01;4.50;99.90
20929;DHT22;21895;47.072;15.132;2022-12-10T00:56:30;4.50;99.90
20929;DHT22;21895;47.072;15.132;2022-12-10T00:58:59;4.40;99.90
20929;DHT22;21895;47.072;15.132;2022-12-10T01:01:38;4.40;99.90
20929;DHT22;21895;47.072;15.132;2022-12-10T01:04:12;4.40;99.90
20929;DHT22;21895;47.072;15.132;2022-12-10T01:06:47;4.40;99.90
20929;DHT22;21895;47.072;15.132;2022-12-10T01:09:24;4.50;99.90
20929;DHT22;21895;47.072;15.132;2022-12-10T01:11:53;4.60;99.90
20929;DHT22;21895;47.072;15.132;2022-12-10T01:14:24;4.50;99.90
20929;DHT22;21895;47.072;15.132;2022-12-10T01:16:55;4.50;99.90
20929;DHT22;21895;47.072;15.132;2022-12-10T01:19:23;4.40;99.90
20929;DHT22;21895;47.072;15.132;2022-12-10T01:21:51;4.40;99.90
20929;DHT22;21895;47.072;15.132;2022-12-10T01:24:23;4.50;99.90
20929;DHT22;21895;47.072;15.132;2022-12-10T01:26:51;4.50;99.90
20929;DHT22;21895;47.072;15.132;2022-12-10T01:29:18;4.50;99.90
20929;DHT22;21895;47.072;15.132;2022-12-10T01:31:51;4.60;99.90
20929;DHT22;21895;47.072;15.132;2022-12-10T01:34:19;4.70;99.90
20929;DHT22;21895;47.072;15.132;2022-12-10T01:36:50;4.70;99.90
20929;DHT22;21895;47.072;15.132;2022-12-10T01:39:21;4.70;99.90
20929;DHT22;21895;47.072;15.132;2022-12-10T01:41:54;4.70;99.90
20929;DHT22;21895;47.072;15.132;2022-12-10T01:45:10;4.70;99.90
20929;DHT22;21895;47.072;15.132;2022-12-10T01:47:38;4.70;99.90
20929;DHT22;21895;47.072;15.132;2022-12-10T01:50:06;4.70;99.90
20929;DHT22;21895;47.072;15.132;2022-12-10T01:52:35;4.80;99.90
20929;DHT22;21895;47.072;15.132;2022-12-10T01:55:08;4.80;99.90
20929;DHT22;21895;47.072;15.132;2022-12-10T01:58:07;4.90;99.90
20929;DHT22;21895;47.072;15.132;2022-12-10T02:00:41;4.90;99.90
20929;DHT22;21895;47.072;15.132;2022-12-10T02:03:24;4.90;99.90
20929;DHT22;21895;47.072;15.132;2022-12-10T02:07:53;4.90;99.90
20929;DHT22;21895;47.072;15.132;2022-12-10T02:11:26;4.90;99.90
20929;DHT22;21895;47.072;15.132;2022-12-10T02:14:04;4.90;99.90
20929;DHT22;21895;47.072;15.132;2022-12-10T02:17:17;4.90;99.90
20929;DHT22;21895;47.072;15.132;2022-12-10T02:20:40;5.00;99.90
20929;DHT22;21895;47.072;15.132;2022-12-10T02:23:38;5.00;99.90
20929;DHT22;21895;47.072;15.132;2022-12-10T02:30:43;5.10;99.90
20929;DHT22;21895;47.072;15.132;2022-12-10T02:33:14;5.10;99.90
20929;DHT22;21895;47.072;15.132;2022-12-10T02:35:44;5.10;99.90
20929;DHT22;21895;47.072;15.132;2022-12-10T02:38:22;5.10;99.90
20929;DHT22;21895;47.072;15.132;2022-12-10T02:40:58;5.00;99.90
20929;DHT22;21895;47.072;15.132;2022-12-10T02:43:32;5.00;99.90
20929;DHT22;21895;47.072;15.132;2022-12-10T02:46:02;5.10;99.90
20929;DHT22;21895;47.072;15.132;2022-12-10T02:48:31;5.10;99.90
20929;DHT22;21895;47.072;15.132;2022-12-10T02:51:00;5.10;99.90
20929;DHT22;21895;47.072;15.132;2022-12-10T02:53:26;5.10;99.90
20929;DHT22;21895;47.072;15.132;2022-12-10T02:56:08;5.00;99.90
20929;DHT22;21895;47.072;15.132;2022-12-10T03:00:21;5.00;99.90
20929;DHT22;21895;47.072;15.132;2022-12-10T03:03:43;5.00;99.90
20929;DHT22;21895;47.072;15.132;2022-12-10T03:06:36;5.10;99.90
20929;DHT22;21895;47.072;15.132;2022-12-10T03:09:45;5.10;99.90
20929;DHT22;21895;47.072;15.132;2022-12-10T03:12:54;5.10;99.90
20929;DHT22;21895;47.072;15.132;2022-12-10T03:15:27;5.10;99.90
20929;DHT22;21895;47.072;15.132;2022-12-10T03:17:56;5.20;99.90
20929;DHT22;21895;47.072;15.132;2022-12-10T03:20:25;5.20;99.90
20929;DHT22;21895;47.072;15.132;2022-12-10T03:22:53;5.20;99.90
20929;DHT22;21895;47.072;15.132;2022-12-10T03:25:24;5.20;99.90
20929;DHT22;21895;47.072;15.132;2022-12-10T03:27:55;5.20;99.90
20929;DHT22;21895;47.072;15.132;2022-12-10T03:30:23;5.20;99.90
20929;DHT22;21895;47.072;15.132;2022-12-10T03:32:50;5.20;99.90
20929;DHT22;21895;47.072;15.132;2022-12-10T03:35:20;5.10;99.90
20929;DHT22;21895;47.072;15.132;2022-12-10T03:37:49;5.10;99.90
20929;DHT22;21895;47.072;15.132;2022-12-10T03:40:20;5.20;99.90
20929;DHT22;21895;47.072;15.132;2022-12-10T03:42:48;5.20;99.90
20929;DHT22;21895;47.072;15.132;2022-12-10T03:45:18;5.20;99.90
20929;DHT22;21895;47.072;15.132;2022-12-10T03:47:45;5.20;99.90
20929;DHT22;21895;47.072;15.132;2022-12-10T03:50:11;5.20;99.90
20929;DHT22;21895;47.072;15.132;2022-12-10T03:52:38;5.20;99.90
20929;DHT22;21895;47.072;15.132;2022-12-10T03:55:05;5.20;99.90
20929;DHT22;21895;47.072;15.132;2022-12-10T03:57:33;5.20;99.90
20929;DHT22;21895;47.072;15.132;2022-12-10T04:00:00;5.20;99.90
20929;DHT22;21895;47.072;15.132;2022-12-10T04:02:29;5.20;99.90
20929;DHT22;21895;47.072;15.132;2022-12-10T04:04:56;5.20;99.90
20929;DHT22;21895;47.072;15.132;2022-12-10T04:07:22;5.20;99.90
20929;DHT22;21895;47.072;15.132;2022-12-10T04:09:49;5.20;99.90
20929;DHT22;21895;47.072;15.132;2022-12-10T04:12:15;5.10;99.90
20929;DHT22;21895;47.072;15.132;2022-12-10T04:14:44;5.20;99.90
20929;DHT22;21895;47.072;15.132;2022-12-10T04:17:32;5.10;99.90
20929;DHT22;21895;47.072;15.132;2022-12-10T04:19:59;5.10;99.90
20929;DHT22;21895;47.072;15.132;2022-12-10T04:22:25;5.10;99.90
20929;DHT22;21895;47.072;15.132;2022-12-10T04:25:12;5.20;99.90
20929;DHT22;21895;47.072;15.132;2022-12-10T04:27:56;5.20;99.90
20929;DHT22;21895;47.072;15.132;2022-12-10T04:30:23;5.20;99.90
20929;DHT22;21895;47.072;15.132;2022-12-10T04:32:50;5.20;99.90
20929;DHT22;21895;47.072;15.132;2022-12-10T04:35:17;5.30;99.90
20929;DHT22;21895;47.072;15.132;2022-12-10T04:37:45;5.30;99.90
20929;DHT22;21895;47.072;15.132;2022-12-10T04:40:12;5.30;99.90
20929;DHT22;21895;47.072;15.132;2022-12-10T04:42:38;5.30;99.90
20929;DHT22;21895;47.072;15.132;2022-12-10T04:45:05;5.30;99.90
20929;DHT22;21895;47.072;15.132;2022-12-10T04:47:32;5.20;99.90
20929;DHT22;21895;47.072;15.132;2022-12-10T04:49:59;5.20;99.90
20929;DHT22;21895;47.072;15.132;2022-12-10T04:52:25;5.20;99.90
20929;DHT22;21895;47.072;15.132;2022-12-10T04:54:51;5.20;99.90
20929;DHT22;21895;47.072;15.132;2022-12-10T04:57:18;5.10;99.90
20929;DHT22;21895;47.072;15.132;2022-12-10T04:59:44;5.20;99.90
20929;DHT22;21895;47.072;15.132;2022-12-10T05:02:11;5.20;99.90
20929;DHT22;21895;47.072;15.132;2022-12-10T05:04:37;5.30;99.90
20929;DHT22;21895;47.072;15.132;2022-12-10T05:07:04;5.30;99.90
20929;DHT22;21895;47.072;15.132;2022-12-10T05:09:30;5.30;99.90
20929;DHT22;21895;47.072;15.132;2022-12-10T05:11:57;5.30;99.90
20929;DHT22;21895;47.072;15.132;2022-12-10T05:14:23;5.30;99.90
20929;DHT22;21895;47.072;15.132;2022-12-10T05:16:50;5.30;99.90
20929;DHT22;21895;47.072;15.132;2022-12-10T05:19:17;5.30;99.90
20929;DHT22;21895;47.072;15.132;2022-12-10T05:21:49;5.40;99.90
20929;DHT22;21895;47.072;15.132;2022-12-10T05:24:34;5.40;99.90
20929;DHT22;21895;47.072;15.132;2022-12-10T05:27:01;5.40;99.90
20929;DHT22;21895;47.072;15.132;2022-12-10T05:29:28;5.40;99.90
20929;DHT22;21895;47.072;15.132;2022-12-10T05:31:54;5.30;99.90
20929;DHT22;21895;47.072;15.132;2022-12-10T05:34:21;5.30;99.90
20929;DHT22;21895;47.072;15.132;2022-12-10T05:36:47;5.20;99.90
20929;DHT22;21895;47.072;15.132;2022-12-10T05:39:14;5.20;99.90
20929;DHT22;21895;47.072;15.132;2022-12-10T05:41:41;5.20;99.90
20929;DHT22;21895;47.072;15.132;2022-12-10T05:44:09;5.20;99.90
20929;DHT22;21895;47.072;15.132;2022-12-10T05:46:38;5.20;99.90
20929;DHT22;21895;47.072;15.132;2022-12-10T05:49:06;5.20;99.90
20929;DHT22;21895;47.072;15.132;2022-12-10T05:51:35;5.20;99.90
20929;DHT22;21895;47.072;15.132;2022-12-10T05:54:04;5.20;99.90
20929;DHT22;21895;47.072;15.132;2022-12-10T05:56:32;5.20;99.90
20929;DHT22;21895;47.072;15.132;2022-12-10T05:59:00;5.30;99.90
20929;DHT22;21895;47.072;15.132;2022-12-10T06:01:31;5.30;99.90
20929;DHT22;21895;47.072;15.132;2022-12-10T06:04:01;5.30;99.90
20929;DHT22;21895;47.072;15.132;2022-12-10T06:06:32;5.30;99.90
20929;DHT22;21895;47.072;15.132;2022-12-10T06:09:00;5.30;99.90
20929;DHT22;21895;47.072;15.132;2022-12-10T06:11:27;5.30;99.90
20929;DHT22;21895;47.072;15.132;2022-12-10T06:13:54;5.30;99.90
20929;DHT22;21895;47.072;15.132;2022-12-10T06:16:23;5.40;99.90
20929;DHT22;21895;47.072;15.132;2022-12-10T06:18:51;5.40;99.90
20929;DHT22;21895;47.072;15.132;2022-12-10T06:21:19;5.50;99.90
20929;DHT22;21895;47.072;15.132;2022-12-10T06:23:47;5.50;99.90
20929;DHT22;21895;47.072;15.132;2022-12-10T06:26:23;5.50;99.90
20929;DHT22;21895;47.072;15.132;2022-12-10T06:28:51;5.50;99.90
20929;DHT22;21895;47.072;15.132;2022-12-10T06:31:19;5.50;99.90
20929;DHT22;21895;47.072;15.132;2022-12-10T06:33:46;5.50;99.90
20929;DHT22;21895;47.072;15.132;2022-12-10T06:36:16;5.50;99.90
20929;DHT22;21895;47.072;15.132;2022-12-10T06:38:43;5.50;99.90
20929;DHT22;21895;47.072;15.132;2022-12-10T06:41:14;5.50;99.90
20929;DHT22;21895;47.072;15.132;2022-12-10T06:43:41;5.60;99.90
20929;DHT22;21895;47.072;15.132;2022-12-10T06:46:10;5.60;99.90
20929;DHT22;21895;47.072;15.132;2022-12-10T06:48:39;5.50;99.90
20929;DHT22;21895;47.072;15.132;2022-12-10T06:51:07;5.50;99.90
20929;DHT22;21895;47.072;15.132;2022-12-10T06:53:35;5.50;99.90
20929;DHT22;21895;47.072;15.132;2022-12-10T06:56:03;5.50;99.90
20929;DHT22;21895;47.072;15.132;2022-12-10T06:58:33;5.60;99.90
20929;DHT22;21895;47.072;15.132;2022-12-10T07:01:09;5.60;99.90
20929;DHT22;21895;47.072;15.132;2022-12-10T07:03:40;5.60;99.90
20929;DHT22;21895;47.072;15.132;2022-12-10T07:06:09;5.60;99.90
20929;DHT22;21895;47.072;15.132;2022-12-10T07:08:36;5.70;99.90
20929;DHT22;21895;47.072;15.132;2022-12-10T07:11:09;5.70;99.90
20929;DHT22;21895;47.072;15.132;2022-12-10T07:13:37;5.80;99.90
20929;DHT22;21895;47.072;15.132;2022-12-10T07:16:19;5.70;99.90
20929;DHT22;21895;47.072;15.132;2022-12-10T07:18:48;5.70;99.90
20929;DHT22;21895;47.072;15.132;2022-12-10T07:21:41;5.70;99.90
20929;DHT22;21895;47.072;15.132;2022-12-10T07:24:13;5.80;99.90
20929;DHT22;21895;47.072;15.132;2022-12-10T07:26:44;5.70;99.90
20929;DHT22;21895;47.072;15.132;2022-12-10T07:29:14;5.70;99.90
20929;DHT22;21895;47.072;15.132;2022-12-10T07:31:43;5.80;99.90
20929;DHT22;21895;47.072;15.132;2022-12-10T07:34:10;5.80;99.90
20929;DHT22;21895;47.072;15.132;2022-12-10T07:36:36;5.90;99.90
20929;DHT22;21895;47.072;15.132;2022-12-10T07:39:06;5.80;99.90
20929;DHT22;21895;47.072;15.132;2022-12-10T07:41:34;5.90;99.90
20929;DHT22;21895;47.072;15.132;2022-12-10T07:44:04;5.90;99.90
20929;DHT22;21895;47.072;15.132;2022-12-10T07:46:32;5.80;99.90
20929;DHT22;21895;47.072;15.132;2022-12-10T07:49:00;5.90;99.90
20929;DHT22;21895;47.072;15.132;2022-12-10T07:51:28;5.90;99.90
20929;DHT22;21895;47.072;15.132;2022-12-10T07:53:55;6.00;99.90
20929;DHT22;21895;47.072;15.132;2022-12-10T07:56:23;6.00;99.90
20929;DHT22;21895;47.072;15.132;2022-12-10T07:58:50;6.00;99.90
20929;DHT22;21895;47.072;15.132;2022-12-10T08:01:23;6.10;99.90
20929;DHT22;21895;47.072;15.132;2022-12-10T08:03:53;6.10;99.90
20929;DHT22;21895;47.072;15.132;2022-12-10T08:06:28;6.20;99.90
20929;DHT22;21895;47.072;15.132;2022-12-10T08:08:57;6.20;99.90
20929;DHT22;21895;47.072;15.132;2022-12-10T08:11:24;6.20;99.90
20929;DHT22;21895;47.072;15.132;2022-12-10T08:13:52;6.30;99.90
20929;DHT22;21895;47.072;15.132;2022-12-10T08:16:24;6.20;99.90
20929;DHT22;21895;47.072;15.132;2022-12-10T08:18:56;6.30;99.90
20929;DHT22;21895;47.072;15.132;2022-12-10T08:21:27;6.30;99.90
20929;DHT22;21895;47.072;15.132;2022-12-10T08:23:55;6.30;99.90
20929;DHT22;21895;47.072;15.132;2022-12-10T08:26:26;6.30;99.90
20929;DHT22;21895;47.072;15.132;2022-12-10T08:28:56;6.30;99.90
20929;DHT22;21895;47.072;15.132;2022-12-10T08:31:25;6.40;99.90
20929;DHT22;21895;47.072;15.132;2022-12-10T08:33:53;6.30;99.90
20929;DHT22;21895;47.072;15.132;2022-12-10T08:36:20;6.40;99.90
20929;DHT22;21895;47.072;15.132;2022-12-10T08:38:47;6.30;99.90
20929;DHT22;21895;47.072;15.132;2022-12-10T08:41:21;6.40;99.90
20929;DHT22;21895;47.072;15.132;2022-12-10T08:43:48;6.40;99.90
20929;DHT22;21895;47.072;15.132;2022-12-10T08:46:17;6.40;99.90
20929;DHT22;21895;47.072;15.132;2022-12-10T08:48:43;6.40;99.90
20929;DHT22;21895;47.072;15.132;2022-12-10T08:51:13;6.40;99.90
20929;DHT22;21895;47.072;15.132;2022-12-10T08:53:41;6.40;99.90
20929;DHT22;21895;47.072;15.132;2022-12-10T08:56:08;6.50;99.90
20929;DHT22;21895;47.072;15.132;2022-12-10T08:58:36;6.50;99.90
20929;DHT22;21895;47.072;15.132;2022-12-10T09:01:11;6.50;99.90
20929;DHT22;21895;47.072;15.132;2022-12-10T09:03:40;6.60;99.90
20929;DHT22;21895;47.072;15.132;2022-12-10T09:06:12;6.60;99.90
20929;DHT22;21895;47.072;15.132;2022-12-10T09:08:43;6.60;99.90
20929;DHT22;21895;47.072;15.132;2022-12-10T09:11:26;6.60;99.90
20929;DHT22;21895;47.072;15.132;2022-12-10T09:13:55;6.60;99.90
20929;DHT22;21895;47.072;15.132;2022-12-10T09:16:31;6.60;99.90
20929;DHT22;21895;47.072;15.132;2022-12-10T09:18:59;6.70;99.90
20929;DHT22;21895;47.072;15.132;2022-12-10T09:21:27;6.80;99.90
20929;DHT22;21895;47.072;15.132;2022-12-10T09:23:54;6.80;99.90
20929;DHT22;21895;47.072;15.132;2022-12-10T09:26:20;6.80;99.90
20929;DHT22;21895;47.072;15.132;2022-12-10T09:28:48;6.70;99.90
20929;DHT22;21895;47.072;15.132;2022-12-10T09:31:17;6.80;99.90
20929;DHT22;21895;47.072;15.132;2022-12-10T09:33:48;6.80;99.90
20929;DHT22;21895;47.072;15.132;2022-12-10T09:36:16;6.70;99.90
20929;DHT22;21895;47.072;15.132;2022-12-10T09:38:44;6.80;99.90
20929;DHT22;21895;47.072;15.132;2022-12-10T09:41:34;6.80;99.90
20929;DHT22;21895;47.072;15.132;2022-12-10T09:46:55;6.90;99.90
20929;DHT22;21895;47.072;15.132;2022-12-10T09:49:58;7.00;99.90
20929;DHT22;21895;47.072;15.132;2022-12-10T09:52:45;7.10;99.90
20929;DHT22;21895;47.072;15.132;2022-12-10T09:55:20;7.20;99.90
20929;DHT22;21895;47.072;15.132;2022-12-10T09:57:54;7.20;99.90
20929;DHT22;21895;47.072;15.132;2022-12-10T10:00:37;7.20;99.90
20929;DHT22;21895;47.072;15.132;2022-12-10T10:03:05;7.30;99.90
20929;DHT22;21895;47.072;15.132;2022-12-10T10:05:39;7.30;99.90
20929;DHT22;21895;47.072;15.132;2022-12-10T10:08:31;7.30;99.90
20929;DHT22;21895;47.072;15.132;2022-12-10T10:11:28;7.10;99.90
20929;DHT22;21895;47.072;15.132;2022-12-10T10:14:04;7.10;99.90
20929;DHT22;21895;47.072;15.132;2022-12-10T10:17:07;7.00;99.90
20929;DHT22;21895;47.072;15.132;2022-12-10T10:19:38;7.00;99.90
20929;DHT22;21895;47.072;15.132;2022-12-10T10:22:08;7.00;99.90
20929;DHT22;21895;47.072;15.132;2022-12-10T10:24:41;7.00;99.90
20929;DHT22;21895;47.072;15.132;2022-12-10T10:27:21;7.00;99.90
20929;DHT22;21895;47.072;15.132;2022-12-10T10:29:51;6.90;99.90
20929;DHT22;21895;47.072;15.132;2022-12-10T10:32:53;6.90;99.90
20929;DHT22;21895;47.072;15.132;2022-12-10T10:35:27;6.90;99.90
20929;DHT22;21895;47.072;15.132;2022-12-10T10:38:07;6.90;99.90
20929;DHT22;21895;47.072;15.132;2022-12-10T10:40:44;6.90;99.90
20929;DHT22;21895;47.072;15.132;2022-12-10T10:43:23;6.90;99.90
20929;DHT22;21895;47.072;15.132;2022-12-10T10:46:17;6.80;99.90
20929;DHT22;21895;47.072;15.132;2022-12-10T10:48:48;6.90;99.90
20929;DHT22;21895;47.072;15.132;2022-12-10T10:51:21;6.90;99.90
20929;DHT22;21895;47.072;15.132;2022-12-10T10:53:54;6.90;99.90
20929;DHT22;21895;47.072;15.132;2022-12-10T10:56:27;6.90;99.90
20929;DHT22;21895;47.072;15.132;2022-12-10T10:59:49;6.80;99.90
20929;DHT22;21895;47.072;15.132;2022-12-10T11:02:29;6.80;99.90
20929;DHT22;21895;47.072;15.132;2022-12-10T11:05:05;6.80;99.90
20929;DHT22;21895;47.072;15.132;2022-12-10T11:07:39;6.70;99.90
20929;DHT22;21895;47.072;15.132;2022-12-10T11:10:29;6.70;99.90
20929;DHT22;21895;47.072;15.132;2022-12-10T11:12:58;6.70;99.90
20929;DHT22;21895;47.072;15.132;2022-12-10T11:15:40;6.60;99.90
20929;DHT22;21895;47.072;15.132;2022-12-10T11:20:00;6.50;99.90
20929;DHT22;21895;47.072;15.132;2022-12-10T11:22:49;6.60;99.90
20929;DHT22;21895;47.072;15.132;2022-12-10T11:25:22;6.60;99.90
20929;DHT22;21895;47.072;15.132;2022-12-10T11:38:03;6.70;99.90
20929;DHT22;21895;47.072;15.132;2022-12-10T11:52:38;6.60;99.90
20929;DHT22;21895;47.072;15.132;2022-12-10T11:57:51;6.80;99.90
20929;DHT22;21895;47.072;15.132;2022-12-10T12:02:53;6.90;99.90
20929;DHT22;21895;47.072;15.132;2022-12-10T12:06:26;6.90;99.90
20929;DHT22;21895;47.072;15.132;2022-12-10T12:09:29;6.90;99.90
20929;DHT22;21895;47.072;15.132;2022-12-10T12:13:53;7.00;99.90
20929;DHT22;21895;47.072;15.132;2022-12-10T12:16:34;6.90;99.90
20929;DHT22;21895;47.072;15.132;2022-12-10T12:19:18;6.80;99.90
20929;DHT22;21895;47.072;15.132;2022-12-10T12:21:50;6.80;99.90
20929;DHT22;21895;47.072;15.132;2022-12-10T12:24:37;6.70;99.90
20929;DHT22;21895;47.072;15.132;2022-12-10T12:28:11;6.70;99.90
20929;DHT22;21895;47.072;15.132;2022-12-10T12:30:47;6.70;99.90
20929;DHT22;21895;47.072;15.132;2022-12-10T12:33:42;6.60;99.90
20929;DHT22;21895;47.072;15.132;2022-12-10T12:36:36;6.60;99.90
20929;DHT22;21895;47.072;15.132;2022-12-10T12:42:29;6.60;99.90
20929;DHT22;21895;47.072;15.132;2022-12-10T12:45:40;6.60;99.90
20929;DHT22;21895;47.072;15.132;2022-12-10T12:48:38;6.60;99.90
20929;DHT22;21895;47.072;15.132;2022-12-10T12:52:40;6.70;99.90
20929;DHT22;21895;47.072;15.132;2022-12-10T12:55:48;6.60;99.90
20929;DHT22;21895;47.072;15.132;2022-12-10T13:01:22;6.60;99.90
20929;DHT22;21895;47.072;15.132;2022-12-10T13:04:15;6.50;99.90
20929;DHT22;21895;47.072;15.132;2022-12-10T13:06:42;6.50;99.90
20929;DHT22;21895;47.072;15.132;2022-12-10T13:09:46;6.50;99.90
20929;DHT22;21895;47.072;15.132;2022-12-10T13:13:33;6.50;99.90
20929;DHT22;21895;47.072;15.132;2022-12-10T13:18:18;6.60;99.90
20929;DHT22;21895;47.072;15.132;2022-12-10T13:21:26;6.60;99.90
20929;DHT22;21895;47.072;15.132;2022-12-10T13:24:07;6.60;99.90
20929;DHT22;21895;47.072;15.132;2022-12-10T13:26:36;6.60;99.90
20929;DHT22;21895;47.072;15.132;2022-12-10T13:29:24;6.60;99.90
20929;DHT22;21895;47.072;15.132;2022-12-10T13:32:04;6.50;99.90
20929;DHT22;21895;47.072;15.132;2022-12-10T13:34:41;6.50;99.90
20929;DHT22;21895;47.072;15.132;2022-12-10T13:37:29;6.50;99.90
20929;DHT22;21895;47.072;15.132;2022-12-10T13:45:36;6.50;99.90
20929;DHT22;21895;47.072;15.132;2022-12-10T13:50:33;6.50;99.90
20929;DHT22;21895;47.072;15.132;2022-12-10T13:54:49;6.50;99.90
20929;DHT22;21895;47.072;15.132;2022-12-10T13:58:21;6.40;99.90
20929;DHT22;21895;47.072;15.132;2022-12-10T14:01:21;6.40;99.90
20929;DHT22;21895;47.072;15.132;2022-12-10T14:07:13;6.30;99.90
20929;DHT22;21895;47.072;15.132;2022-12-10T14:09:49;6.30;99.90
20929;DHT22;21895;47.072;15.132;2022-12-10T14:12:30;6.30;99.90
20929;DHT22;21895;47.072;15.132;2022-12-10T14:15:03;6.30;99.90
20929;DHT22;21895;47.072;15.132;2022-12-10T14:17:34;6.30;99.90
20929;DHT22;21895;47.072;15.132;2022-12-10T14:20:07;6.20;99.90
20929;DHT22;21895;47.072;15.132;2022-12-10T14:22:48;6.20;99.90
20929;DHT22;21895;47.072;15.132;2022-12-10T14:25:21;6.20;99.90
20929;DHT22;21895;47.072;15.132;2022-12-10T14:27:50;6.10;99.90
20929;DHT22;21895;47.072;15.132;2022-12-10T14:30:25;6.10;99.90
20929;DHT22;21895;47.072;15.132;2022-12-10T14:32:55;6.10;99.90
20929;DHT22;21895;47.072;15.132;2022-12-10T14:35:26;6.10;99.90
20929;DHT22;21895;47.072;15.132;2022-12-10T14:37:57;6.10;99.90
20929;DHT22;21895;47.072;15.132;2022-12-10T14:40:31;6.10;99.90
20929;DHT22;21895;47.072;15.132;2022-12-10T14:43:24;6.10;99.90
20929;DHT22;21895;47.072;15.132;2022-12-10T14:46:06;6.10;99.90
20929;DHT22;21895;47.072;15.132;2022-12-10T14:48:41;6.00;99.90
20929;DHT22;21895;47.072;15.132;2022-12-10T14:51:17;6.00;99.90
20929;DHT22;21895;47.072;15.132;2022-12-10T14:53:49;6.00;99.90
20929;DHT22;21895;47.072;15.132;2022-12-10T14:56:30;6.00;99.90
20929;DHT22;21895;47.072;15.132;2022-12-10T15:00:25;6.00;99.90
20929;DHT22;21895;47.072;15.132;2022-12-10T15:02:56;5.90;99.90
20929;DHT22;21895;47.072;15.132;2022-12-10T15:05:35;5.90;99.90
20929;DHT22;21895;47.072;15.132;2022-12-10T15:08:13;5.90;99.90
20929;DHT22;21895;47.072;15.132;2022-12-10T15:10:46;5.90;99.90
20929;DHT22;21895;47.072;15.132;2022-12-10T15:13:23;5.90;99.90
20929;DHT22;21895;47.072;15.132;2022-12-10T15:15:56;5.80;99.90
20929;DHT22;21895;47.072;15.132;2022-12-10T15:18:32;5.90;99.90
20929;DHT22;21895;47.072;15.132;2022-12-10T15:21:20;5.80;99.90
20929;DHT22;21895;47.072;15.132;2022-12-10T15:23:48;5.80;99.90
20929;DHT22;21895;47.072;15.132;2022-12-10T15:26:20;5.80;99.90
20929;DHT22;21895;47.072;15.132;2022-12-10T15:32:50;5.80;99.90
20929;DHT22;21895;47.072;15.132;2022-12-10T15:35:18;5.80;99.90
20929;DHT22;21895;47.072;15.132;2022-12-10T15:37:53;5.70;99.90
20929;DHT22;21895;47.072;15.132;2022-12-10T15:40:26;5.70;99.90
20929;DHT22;21895;47.072;15.132;2022-12-10T15:43:27;5.70;99.90
20929;DHT22;21895;47.072;15.132;2022-12-10T15:45:57;5.70;99.90
20929;DHT22;21895;47.072;15.132;2022-12-10T15:48:27;5.70;99.90
20929;DHT22;21895;47.072;15.132;2022-12-10T15:50:55;5.70;99.90
20929;DHT22;21895;47.072;15.132;2022-12-10T15:53:29;5.60;99.90
20929;DHT22;21895;47.072;15.132;2022-12-10T15:56:05;5.60;99.90
20929;DHT22;21895;47.072;15.132;2022-12-10T15:58:32;5.60;99.90
20929;DHT22;21895;47.072;15.132;2022-12-10T16:00:59;5.60;99.90
20929;DHT22;21895;47.072;15.132;2022-12-10T16:03:28;5.60;99.90
20929;DHT22;21895;47.072;15.132;2022-12-10T16:05:55;5.40;99.90
20929;DHT22;21895;47.072;15.132;2022-12-10T16:08:23;5.40;99.90
20929;DHT22;21895;47.072;15.132;2022-12-10T16:10:56;5.30;99.90
20929;DHT22;21895;47.072;15.132;2022-12-10T16:13:32;5.30;99.90
20929;DHT22;21895;47.072;15.132;2022-12-10T16:16:09;5.30;99.90
20929;DHT22;21895;47.072;15.132;2022-12-10T16:18:37;5.30;99.90
20929;DHT22;21895;47.072;15.132;2022-12-10T16:21:04;5.30;99.90
20929;DHT22;21895;47.072;15.132;2022-12-10T16:23:32;5.30;99.90
20929;DHT22;21895;47.072;15.132;2022-12-10T16:26:04;5.30;99.90
20929;DHT22;21895;47.072;15.132;2022-12-10T16:28:39;5.30;99.90
20929;DHT22;21895;47.072;15.132;2022-12-10T16:31:10;5.30;99.90
20929;DHT22;21895;47.072;15.132;2022-12-10T16:33:39;5.30;99.90
20929;DHT22;21895;47.072;15.132;2022-12-10T16:36:06;5.20;99.90
20929;DHT22;21895;47.072;15.132;2022-12-10T16:38:33;5.20;99.90
20929;DHT22;21895;47.072;15.132;2022-12-10T16:41:00;5.20;99.90
20929;DHT22;21895;47.072;15.132;2022-12-10T16:43:28;5.20;99.90
20929;DHT22;21895;47.072;15.132;2022-12-10T16:45:56;5.10;99.90
20929;DHT22;21895;47.072;15.132;2022-12-10T16:48:23;4.90;99.90
20929;DHT22;21895;47.072;15.132;2022-12-10T16:50:51;5.00;99.90
20929;DHT22;21895;47.072;15.132;2022-12-10T16:53:24;5.00;99.90
20929;DHT22;21895;47.072;15.132;2022-12-10T16:55:53;5.00;99.90
20929;DHT22;21895;47.072;15.132;2022-12-10T16:58:24;5.10;99.90
20929;DHT22;21895;47.072;15.132;2022-12-10T17:00:52;5.00;99.90
20929;DHT22;21895;47.072;15.132;2022-12-10T17:03:23;5.00;99.90
20929;DHT22;21895;47.072;15.132;2022-12-10T17:05:57;5.00;99.90
20929;DHT22;21895;47.072;15.132;2022-12-10T17:08:28;5.00;99.90
20929;DHT22;21895;47.072;15.132;2022-12-10T17:10:58;5.00;99.90
20929;DHT22;21895;47.072;15.132;2022-12-10T17:13:44;5.00;99.90
20929;DHT22;21895;47.072;15.132;2022-12-10T17:16:17;4.90;99.90
20929;DHT22;21895;47.072;15.132;2022-12-10T17:18:47;4.90;99.90
20929;DHT22;21895;47.072;15.132;2022-12-10T17:21:13;4.90;99.90
20929;DHT22;21895;47.072;15.132;2022-12-10T17:23:40;5.00;99.90
20929;DHT22;21895;47.072;15.132;2022-12-10T17:26:08;5.00;99.90